Telsiai, Lithuania

8:11 PM EEST on August 28, 2015 (GMT +0300)
Siauliai International | | Change Station
CLOSE
Current Station
Airport
Location: Siauliai,
Elevation: 443 ft
Nearby Weather Stations

Elev 443 ft 55.89 °N, 23.40 °E | Updated 21 minutes ago

Scattered Clouds
Scattered Clouds
63 °F
Feels Like 63 °F
N
12
Wind Variable Wind from WSW

Today
High -- | Low -- °F
--% Chance of Precip.
Yesterday
High -- | Low -- °F
Precip. -- in
6:26 AM 8:36 PM
Waxing Gibbous, 98% visible
Pressure 29.95 in
Visibility 6.2 miles
Clouds Few 4500 ft
Scattered Clouds 5500 ft
Dew Point 54 °F
Humidity 72%
Rainfall 0.00 in
Snow Depth Not available.
UV 0 out of 12
Pollen Not available.
Air Quality Not available.
Flu Activity Not available.
METAR EYSA 281650Z 25010KT 9999 FEW045 SCT055 17/12 Q1014
Pressure 29.95 in
Visibility 6.2 miles
Clouds Few 4500 ft
Scattered Clouds 5500 ft
Dew Point 54 °F
Humidity 72%
Rainfall 0.00 in
Snow Depth Not available.
UV 0 out of 12
Pollen Not available.
Air Quality Not available.
Flu Activity Not available.
METAR EYSA 281650Z 25010KT 9999 FEW045 SCT055 17/12 Q1014

10-Day Weather Forecast

×

Almanac

Astronomy

Aug. 28, 2015 Rise Set
Actual Time
Civil Twilight
Nautical Twilight
Astronomical Twilight
Moon
Length of Visible Light
Length of Day
Tomorrow will be .
, % of the Moon is Illuminated

Today's Extremes

Country Highs Country Lows

Community

WunderPhotos

Upload Photos

1,850,438 photos uploaded!

WunderBlogs® & News

Nearby

Air Quality

  Air Quality AQ Index Pollutant
Not available.

Snow Depth

Station Depth Elevation

Earthquake Activity

City Distance Mag. Time & Date
Minimum magnitude displayed is 2.5.

Coastal Water Temperatures

Place Temperature

Stations

Nearby Weather Stations

Station Location Temp. Windchill Dew Point Humidity Wind Precip. Elev Updated Type